Time;durP1;ratioP1;P1;durP2;ratioP2;P2;SDS_P1;SDS_P2;PMS_P1;PMS_P2;Temp;Humidity;BMP_temperature;BMP_pressure;BME280_temperature;BME280_humidity;BME280_pressure;Samples;Min_cycle;Max_cycle;Signal;HPM_P1;HPM_P2
2023/11/26 00:00:30;;;;;;;1.58;0.60;;;;;;;0.70;100.00;98590.44;5012891;28;20065;-73
2023/11/26 00:02:55;;;;;;;4.20;0.70;;;;;;;0.68;100.00;98637.06;5038373;28;20076;-74
2023/11/26 00:05:21;;;;;;;1.90;0.77;;;;;;;0.72;100.00;98680.41;5012108;28;20319;-74
2023/11/26 00:07:46;;;;;;;2.30;1.00;;;;;;;0.65;100.00;98571.69;5007279;28;20029;-74
2023/11/26 00:10:13;;;;;;;1.60;0.60;;;;;;;0.64;100.00;98591.06;5028688;28;20037;-74
2023/11/26 00:12:38;;;;;;;2.50;0.90;;;;;;;0.68;100.00;98615.22;4992264;28;20045;-74
2023/11/26 00:15:05;;;;;;;10.23;1.23;;;;;;;0.65;100.00;98645.22;5038434;28;20960;-74
2023/11/26 00:17:31;;;;;;;2.80;0.60;;;;;;;0.48;100.00;98636.38;5008644;28;20069;-74
2023/11/26 00:19:56;;;;;;;3.70;0.80;;;;;;;0.49;100.00;98697.59;5030295;28;20604;-75
2023/11/26 00:22:26;;;;;;;5.90;0.85;;;;;;;0.43;100.00;98714.78;5015236;28;20037;-74
2023/11/26 00:24:51;;;;;;;2.80;1.00;;;;;;;0.40;100.00;98763.16;5009373;28;20045;-75
2023/11/26 00:27:16;;;;;;;1.27;0.70;;;;;;;0.45;100.00;98781.09;5048458;22;20041;-75
2023/11/26 00:29:42;;;;;;;10.15;3.08;;;;;;;0.23;100.00;98695.66;5011988;28;20057;-74
2023/11/26 00:32:07;;;;;;;3.35;0.77;;;;;;;0.24;100.00;98820.69;5028425;28;20035;-74
2023/11/26 00:34:34;;;;;;;4.30;0.90;;;;;;;0.29;100.00;98779.09;5024989;28;20087;-75
2023/11/26 00:36:59;;;;;;;3.95;0.93;;;;;;;0.23;100.00;98871.53;5028525;28;20148;-73
2023/11/26 00:39:26;;;;;;;5.97;1.60;;;;;;;0.19;100.00;98863.13;5028012;28;20515;-74
2023/11/26 00:41:51;;;;;;;1.90;0.60;;;;;;;0.22;100.00;98877.75;5027337;28;20045;-75
2023/11/26 00:44:17;;;;;;;1.25;0.47;;;;;;;0.33;100.00;98884.66;5028075;28;20059;-75
2023/11/26 00:46:42;;;;;;;1.58;0.55;;;;;;;0.25;100.00;98821.53;5019661;28;20483;-75
2023/11/26 00:49:08;;;;;;;6.03;1.10;;;;;;;0.11;100.00;98896.28;5045730;28;20367;-74
2023/11/26 00:51:33;;;;;;;2.40;0.52;;;;;;;0.14;100.00;98898.59;5045326;28;20063;-75
2023/11/26 00:53:59;;;;;;;3.88;1.42;;;;;;;0.08;100.00;98967.41;5028069;28;20032;-74
2023/11/26 00:56:26;;;;;;;4.53;1.02;;;;;;;0.04;100.00;98968.66;5027275;28;20033;-74
2023/11/26 00:58:52;;;;;;;2.63;0.93;;;;;;;-0.03;100.00;99034.78;5027235;28;20044;-75
2023/11/26 01:01:17;;;;;;;1.35;1.00;;;;;;;-0.03;100.00;99031.34;5027817;28;20091;-74
2023/11/26 01:03:43;;;;;;;2.65;1.35;;;;;;;-0.01;100.00;99053.03;5035512;28;20179;-74
2023/11/26 01:06:08;;;;;;;3.97;1.30;;;;;;;-0.11;100.00;99183.38;5004385;28;20570;-75
2023/11/26 01:08:33;;;;;;;1.55;0.93;;;;;;;-0.23;100.00;99214.94;5002433;28;20038;-75
2023/11/26 01:11:04;;;;;;;2.63;1.20;;;;;;;-0.13;100.00;99238.59;5003155;28;20041;-75
2023/11/26 01:13:29;;;;;;;2.30;0.80;;;;;;;-0.04;100.00;99182.69;5006879;28;20823;-74
2023/11/26 01:15:55;;;;;;;;;;;;;;;-0.15;100.00;99119.00;5027470;28;20056;-74
2023/11/26 01:18:21;;;;;;;2.40;1.05;;;;;;;-0.19;100.00;99181.38;5035728;28;19963;-75
2023/11/26 01:20:46;;;;;;;2.85;1.23;;;;;;;-0.19;100.00;99168.25;5010775;28;20029;-75
2023/11/26 01:23:11;;;;;;;3.70;1.38;;;;;;;-0.30;100.00;99189.38;5027073;28;20039;-74
2023/11/26 01:25:38;;;;;;;4.90;1.15;;;;;;;-0.25;100.00;99242.25;5044918;28;20122;-75
2023/11/26 01:28:04;;;;;;;5.43;1.27;;;;;;;-0.34;100.00;99201.06;5027199;28;20029;-75
2023/11/26 01:30:29;;;;;;;2.20;1.35;;;;;;;-0.33;100.00;99228.94;5027441;28;20041;-75
2023/11/26 01:32:54;;;;;;;0.75;0.60;;;;;;;-0.30;100.00;99304.75;5010519;28;20040;-74
2023/11/26 01:35:23;;;;;;;6.85;0.80;;;;;;;-0.29;100.00;99325.59;5027416;28;20091;-73
2023/11/26 01:37:49;;;;;;;3.40;0.95;;;;;;;-0.30;100.00;99400.00;5010653;28;20087;-74
2023/11/26 01:40:14;;;;;;;2.95;1.02;;;;;;;-0.31;100.00;99419.31;5010867;28;20499;-74
2023/11/26 01:42:43;;;;;;;1.15;0.75;;;;;;;-0.37;100.00;99432.13;5026498;28;20064;-74
2023/11/26 01:45:09;;;;;;;2.35;0.73;;;;;;;-0.32;100.00;99430.78;5027284;28;20096;-74
2023/11/26 01:47:35;;;;;;;2.60;0.90;;;;;;;-0.45;100.00;99364.53;5010459;28;20120;-73
2023/11/26 01:50:00;;;;;;;6.40;0.88;;;;;;;-0.46;100.00;99353.22;5027011;28;20041;-74
2023/11/26 01:52:25;;;;;;;2.13;0.60;;;;;;;-0.39;100.00;99392.91;5010394;28;20044;-75
2023/11/26 01:54:51;;;;;;;6.18;0.95;;;;;;;-0.42;100.00;99324.97;5015936;28;20407;-74
2023/11/26 01:57:18;;;;;;;5.05;1.45;;;;;;;-0.50;100.00;99286.25;5004726;28;20080;-73
2023/11/26 01:59:44;;;;;;;1.35;0.70;;;;;;;-0.57;100.00;99342.78;5018488;28;20017;-74
2023/11/26 02:02:10;;;;;;;2.20;1.20;;;;;;;-0.55;100.00;99363.63;5005394;28;20043;-74
2023/11/26 02:04:37;;;;;;;3.60;0.90;;;;;;;-0.55;100.00;99395.94;5023605;28;20488;-74
2023/11/26 02:07:02;;;;;;;;;;;;;;;-0.71;100.00;99398.94;5027355;28;20017;-74
2023/11/26 02:09:28;;;;;;;10.75;1.88;;;;;;;-0.61;100.00;99467.19;5027007;28;20011;-73
2023/11/26 02:11:53;;;;;;;3.03;1.00;;;;;;;-0.55;100.00;99482.44;5026267;28;20071;-74
2023/11/26 02:14:19;;;;;;;3.55;1.13;;;;;;;-0.54;100.00;99484.13;5010343;28;20061;-74
2023/11/26 02:16:48;;;;;;;2.22;1.00;;;;;;;-0.63;100.00;99511.06;5010374;28;20025;-75
2023/11/26 02:19:25;;;;;;;3.13;0.82;;;;;;;-0.61;100.00;99598.28;5021786;28;20037;-76
2023/11/26 02:21:52;;;;;;;2.35;0.68;;;;;;;-0.65;100.00;99655.38;5025809;28;20124;-76
2023/11/26 02:24:24;;;;;;;6.35;1.10;;;;;;;-0.69;100.00;99685.38;5025539;28;20036;-75
2023/11/26 02:26:50;;;;;;;2.47;0.80;;;;;;;-0.77;100.00;99698.25;5011346;28;20072;-74
2023/11/26 02:29:16;;;;;;;2.00;0.70;;;;;;;-0.71;100.00;99699.56;5027818;28;20064;-75
2023/11/26 02:31:41;;;;;;;2.97;0.98;;;;;;;-0.78;100.00;99733.25;5029870;28;20728;-75
2023/11/26 02:34:06;;;;;;;1.92;0.95;;;;;;;-0.80;100.00;99769.22;5027033;28;20531;-74
2023/11/26 02:36:32;;;;;;;1.27;0.85;;;;;;;-0.93;100.00;99760.59;5019732;28;20064;-75
2023/11/26 02:38:57;;;;;;;5.97;1.02;;;;;;;-0.93;100.00;99756.19;5023683;28;20594;-75
2023/11/26 02:41:24;;;;;;;2.60;0.80;;;;;;;-0.94;100.00;99793.00;5015896;28;20037;-75
2023/11/26 02:43:50;;;;;;;2.72;1.00;;;;;;;-0.96;100.00;99806.22;5005700;28;20451;-75
2023/11/26 02:46:15;;;;;;;1.58;0.85;;;;;;;-0.96;100.00;99797.50;5014945;28;20060;-75
2023/11/26 02:48:40;;;;;;;2.83;1.05;;;;;;;-0.95;100.00;99831.47;5047942;28;20021;-75
2023/11/26 02:51:06;;;;;;;;;;;;;;;-0.99;100.00;99850.13;5026933;28;20586;-74
2023/11/26 02:53:32;;;;;;;2.42;0.70;;;;;;;-1.04;100.00;99902.88;5027707;28;19909;-74
2023/11/26 02:55:57;;;;;;;1.98;1.00;;;;;;;-1.14;100.00;99914.94;5030555;28;20040;-75
2023/11/26 02:58:23;;;;;;;2.35;0.85;;;;;;;-1.17;100.00;99952.69;5027036;28;20017;-75
2023/11/26 03:00:49;;;;;;;;;;;;;;;-1.15;100.00;99999.69;5021899;28;20128;-74
2023/11/26 03:03:14;;;;;;;5.25;0.95;;;;;;;-1.22;100.00;100011.53;5029744;28;19913;-75
2023/11/26 03:05:40;;;;;;;;;;;;;;;-1.33;100.00;100021.00;5047363;28;20483;-74
2023/11/26 03:08:21;;;;;;;2.88;1.02;;;;;;;-1.38;100.00;100007.38;5037877;28;19916;-75
2023/11/26 03:13:35;;;;;;;7.13;2.10;;;;;;;-1.56;100.00;100008.59;5018126;28;20040;-74
2023/11/26 03:16:03;;;;;;;11.80;1.98;;;;;;;-1.57;100.00;100022.63;5008348;28;20460;-74
2023/11/26 03:18:28;;;;;;;5.55;1.67;;;;;;;-1.61;100.00;100036.88;5029326;28;20021;-74
2023/11/26 03:20:55;;;;;;;5.03;1.10;;;;;;;-1.61;100.00;100065.69;5046798;28;20529;-74
2023/11/26 03:23:24;;;;;;;2.90;1.48;;;;;;;-1.62;100.00;100090.16;5047103;28;20751;-73
2023/11/26 03:25:50;;;;;;;5.63;1.80;;;;;;;-1.60;100.00;100106.59;5021729;28;20028;-75
2023/11/26 03:28:16;;;;;;;4.70;1.65;;;;;;;-1.67;100.00;100115.78;5005526;28;20025;-74
2023/11/26 03:30:41;;;;;;;11.85;2.58;;;;;;;-1.68;100.00;100130.66;5028972;28;20043;-73
2023/11/26 03:33:07;;;;;;;4.45;1.35;;;;;;;-1.67;100.00;100155.91;5028930;28;20053;-74
2023/11/26 03:35:33;;;;;;;3.70;1.13;;;;;;;-1.76;100.00;100148.63;5014130;28;20373;-74
2023/11/26 03:37:59;;;;;;;1.85;1.10;;;;;;;-1.72;100.00;100178.91;5021135;28;20090;-75
2023/11/26 03:40:24;;;;;;;;;;;;;;;-1.63;100.00;100212.34;5028972;28;20110;-73
2023/11/26 03:42:50;;;;;;;6.47;3.20;;;;;;;-1.71;100.00;100232.94;5027141;28;19920;-74
2023/11/26 03:45:15;;;;;;;3.60;1.75;;;;;;;-1.57;100.00;100297.50;5011964;28;20033;-74
2023/11/26 03:47:41;;;;;;;;;;;;;;;-1.52;100.00;100329.50;5017147;28;20403;-73
2023/11/26 03:50:09;;;;;;;5.28;2.78;;;;;;;-1.50;100.00;100359.03;5045682;28;19967;-73
2023/11/26 03:52:34;;;;;;;8.70;2.70;;;;;;;-1.56;100.00;100356.81;5013603;28;20516;-74
2023/11/26 03:55:00;;;;;;;3.03;1.88;;;;;;;-1.59;100.00;100373.53;5010797;28;20025;-74
2023/11/26 03:57:25;;;;;;;3.60;2.03;;;;;;;-1.54;100.00;100399.44;5044769;28;20780;-74
2023/11/26 03:59:51;;;;;;;;;;;;;;;-1.53;100.00;100408.97;5012229;28;20021;-73
2023/11/26 04:02:17;;;;;;;5.28;2.33;;;;;;;-1.49;100.00;100415.72;5019986;28;19942;-74
2023/11/26 04:04:44;;;;;;;8.00;2.50;;;;;;;-1.42;100.00;100442.38;5044955;28;20099;-73
2023/11/26 04:07:09;;;;;;;4.93;2.25;;;;;;;-1.45;100.00;100443.41;5020932;28;20061;-74
2023/11/26 04:09:34;;;;;;;5.60;3.03;;;;;;;-1.43;100.00;100451.97;5021060;28;20119;-74
2023/11/26 04:12:00;;;;;;;;;;;;;;;-1.38;100.00;100465.66;5016811;28;20074;-74
2023/11/26 04:14:28;;;;;;;;;;;;;;;-1.39;100.00;100458.72;5021983;28;19917;-74
2023/11/26 04:16:54;;;;;;;6.03;2.65;;;;;;;-1.34;100.00;100474.16;5024152;28;19913;-74
2023/11/26 04:19:19;;;;;;;6.35;2.88;;;;;;;-1.28;100.00;100482.50;5046126;28;20162;-74
2023/11/26 04:21:45;;;;;;;4.75;2.28;;;;;;;-1.38;100.00;100463.03;5027645;28;20064;-74
2023/11/26 04:24:15;;;;;;;6.25;2.90;;;;;;;-1.52;100.00;100440.31;5027909;28;20028;-74
2023/11/26 04:26:41;;;;;;;6.18;2.80;;;;;;;-1.45;100.00;100451.25;5006345;28;20127;-74
2023/11/26 04:29:06;;;;;;;4.88;2.28;;;;;;;-1.46;100.00;100441.69;5044753;28;20033;-73
2023/11/26 04:31:32;;;;;;;5.00;2.40;;;;;;;-1.47;100.00;100440.03;5028023;28;20047;-74
2023/11/26 04:33:58;;;;;;;8.60;2.50;;;;;;;-1.48;100.00;100448.81;5045598;28;20091;-74
2023/11/26 04:36:23;;;;;;;;;;;;;;;-1.45;100.00;100440.78;5027376;28;20061;-73
2023/11/26 04:38:49;;;;;;;;;;;;;;;-1.45;100.00;100446.00;5046036;28;20329;-74
2023/11/26 04:41:15;;;;;;;;;;;;;;;-1.43;100.00;100459.84;5028070;28;19924;-74
2023/11/26 04:43:40;;;;;;;6.30;2.40;;;;;;;-1.52;100.00;100439.47;5026359;28;19912;-74
2023/11/26 04:46:07;;;;;;;4.15;2.58;;;;;;;-1.44;100.00;100452.94;5045557;28;21002;-73
2023/11/26 04:48:33;;;;;;;4.55;2.53;;;;;;;-1.41;100.00;100451.91;5027465;28;20029;-74
2023/11/26 04:50:59;;;;;;;;;;;;;;;-1.37;100.00;100469.94;5043028;28;20416;-74
2023/11/26 04:53:24;;;;;;;4.32;1.70;;;;;;;-1.28;100.00;100474.63;5043996;28;19915;-74
2023/11/26 04:55:49;;;;;;;3.72;2.65;;;;;;;-1.36;100.00;100466.41;5019969;28;20017;-73
2023/11/26 04:58:15;;;;;;;;;;;;;;;-1.32;100.00;100465.28;5027920;28;20041;-74
2023/11/26 05:00:40;;;;;;;7.47;2.83;;;;;;;-1.25;100.00;100460.50;5024254;28;20079;-74
2023/11/26 05:03:06;;;;;;;7.22;3.42;;;;;;;-1.33;100.00;100442.66;5027346;28;20094;-74
2023/11/26 05:05:31;;;;;;;8.90;4.15;;;;;;;-1.28;100.00;100437.13;5044048;28;20032;-73
2023/11/26 05:07:57;;;;;;;17.38;2.83;;;;;;;-1.32;100.00;100425.97;5017920;28;20076;-74
2023/11/26 05:10:22;;;;;;;7.75;2.58;;;;;;;-1.27;100.00;100426.53;5045236;28;20403;-74
2023/11/26 05:12:48;;;;;;;3.63;2.17;;;;;;;-1.18;100.00;100409.41;5026777;28;20044;-74
2023/11/26 05:15:13;;;;;;;;;;;;;;;-1.23;100.00;100393.16;5045203;28;20659;-75
2023/11/26 05:17:39;;;;;;;6.88;2.28;;;;;;;-1.20;100.00;100382.47;5044797;28;20612;-74
2023/11/26 05:20:12;;;;;;;4.65;2.45;;;;;;;-1.21;100.00;100379.97;5015513;28;20043;-73
2023/11/26 05:22:38;;;;;;;4.38;1.85;;;;;;;-1.28;100.00;100364.63;5022126;28;20506;-74
2023/11/26 05:25:04;;;;;;;3.28;2.17;;;;;;;-1.28;100.00;100358.53;5010545;28;20116;-74
2023/11/26 05:27:29;;;;;;;8.43;2.40;;;;;;;-1.29;100.00;100360.34;5044793;28;20028;-74
2023/11/26 05:29:54;;;;;;;3.63;1.75;;;;;;;-1.34;100.00;100343.22;5044710;28;20032;-74
2023/11/26 05:32:20;;;;;;;4.45;2.03;;;;;;;-1.35;100.00;100339.75;5044757;28;20123;-74
2023/11/26 05:34:45;;;;;;;5.72;2.00;;;;;;;-1.30;100.00;100340.28;5044480;28;20033;-74
2023/11/26 05:37:11;;;;;;;4.53;2.30;;;;;;;-1.35;100.00;100325.81;5026808;28;20028;-74
2023/11/26 05:39:37;;;;;;;6.32;2.65;;;;;;;-1.43;100.00;100318.41;5018803;28;20051;-73
2023/11/26 05:42:02;;;;;;;7.78;2.17;;;;;;;-1.43;100.00;100326.28;5026534;28;20035;-74
2023/11/26 05:44:30;;;;;;;3.75;2.33;;;;;;;-1.43;100.00;100338.53;5044712;28;20048;-74
2023/11/26 05:46:55;;;;;;;5.85;2.40;;;;;;;-1.46;100.00;100350.03;5008299;28;20029;-74
2023/11/26 05:49:21;;;;;;;10.52;2.65;;;;;;;-1.49;100.00;100352.88;5024634;28;20041;-73
2023/11/26 05:51:46;;;;;;;;;;;;;;;-1.60;100.00;100357.91;5015800;28;20048;-73
2023/11/26 05:54:12;;;;;;;3.45;2.13;;;;;;;-1.50;100.00;100391.31;5044867;28;19913;-74
2023/11/26 05:56:42;;;;;;;6.53;2.60;;;;;;;-1.43;100.00;100402.22;5044792;28;20045;-74
2023/11/26 05:59:08;;;;;;;5.85;2.40;;;;;;;-1.42;100.00;100405.72;5036879;28;20044;-74
2023/11/26 06:01:33;;;;;;;11.10;2.35;;;;;;;-1.49;100.00;100392.16;5010078;28;20029;-73
2023/11/26 06:03:58;;;;;;;;;;;;;;;-1.48;100.00;100399.06;5023600;28;20107;-74
2023/11/26 06:06:23;;;;;;;3.90;2.37;;;;;;;-1.46;100.00;100418.13;5047120;28;19905;-75
2023/11/26 06:08:49;;;;;;;4.85;2.65;;;;;;;-1.51;100.00;100413.16;5045153;28;20037;-73
2023/11/26 06:11:14;;;;;;;4.97;3.20;;;;;;;-1.56;100.00;100412.63;5017825;28;20075;-74
2023/11/26 06:13:39;;;;;;;6.70;2.50;;;;;;;-1.62;100.00;100406.91;5027064;28;20069;-74
2023/11/26 06:16:05;;;;;;;8.27;3.60;;;;;;;-1.64;100.00;100417.50;5047635;28;20048;-74
2023/11/26 06:18:31;;;;;;;4.78;2.70;;;;;;;-1.60;100.00;100425.97;5046654;28;20040;-73
2023/11/26 06:20:57;;;;;;;6.75;2.47;;;;;;;-1.62;100.00;100435.69;5046369;28;20033;-73
2023/11/26 06:23:22;;;;;;;5.40;3.10;;;;;;;-1.74;100.00;100414.56;5029998;28;20048;-74
2023/11/26 06:25:48;;;;;;;6.80;2.92;;;;;;;-1.70;100.00;100442.25;5047930;28;20025;-74
2023/11/26 06:28:13;;;;;;;;;;;;;;;-1.72;100.00;100444.09;5027496;28;20030;-74
2023/11/26 06:30:38;;;;;;;4.60;2.97;;;;;;;-1.71;100.00;100450.19;5048182;28;20552;-74
2023/11/26 06:33:04;;;;;;;6.60;2.80;;;;;;;-1.76;100.00;100449.59;5047316;28;20033;-74
2023/11/26 06:35:29;;;;;;;;;;;;;;;-1.78;100.00;100449.72;5011451;28;20115;-74
2023/11/26 06:37:54;;;;;;;7.83;3.77;;;;;;;-1.86;100.00;100431.00;5046522;28;19962;-74
2023/11/26 06:40:21;;;;;;;7.93;2.80;;;;;;;-1.83;100.00;100451.75;5047956;28;20064;-74
2023/11/26 06:42:46;;;;;;;7.75;3.00;;;;;;;-1.85;100.00;100451.00;5047483;28;20795;-74
2023/11/26 06:45:11;;;;;;;7.65;3.20;;;;;;;-1.92;100.00;100441.81;5047766;28;20033;-74
2023/11/26 06:47:38;;;;;;;;;;;;;;;-1.93;100.00;100448.00;5048309;28;20041;-74
2023/11/26 06:50:04;;;;;;;6.43;3.20;;;;;;;-1.96;100.00;100451.63;5047601;28;19921;-74
2023/11/26 06:52:30;;;;;;;8.60;3.53;;;;;;;-1.95;100.00;100468.16;5029801;28;20033;-74
2023/11/26 06:54:56;;;;;;;8.10;2.60;;;;;;;-1.94;100.00;100467.25;5047545;28;20025;-74
2023/11/26 06:57:21;;;;;;;7.88;3.53;;;;;;;-1.99;100.00;100482.34;5027466;28;20633;-74
2023/11/26 06:59:46;;;;;;;6.38;3.03;;;;;;;-1.94;100.00;100496.03;5047367;28;20029;-74
2023/11/26 07:02:14;;;;;;;;;;;;;;;-1.99;100.00;100487.59;5029498;28;20055;-74
2023/11/26 07:04:40;;;;;;;6.40;3.78;;;;;;;-1.94;100.00;100501.28;5026545;28;19912;-73
2023/11/26 07:07:06;;;;;;;4.93;3.78;;;;;;;-1.83;100.00;100518.94;5044896;28;20025;-75
2023/11/26 07:09:32;;;;;;;;;;;;;;;-1.86;100.00;100519.97;5046806;28;20487;-74
2023/11/26 07:11:57;;;;;;;9.75;4.10;;;;;;;-1.78;100.00;100530.00;5046432;28;20091;-74
2023/11/26 07:14:26;;;;;;;8.13;3.97;;;;;;;-1.73;100.00;100541.91;5023836;28;20037;-74
2023/11/26 07:16:54;;;;;;;8.32;4.13;;;;;;;-1.68;100.00;100544.25;5044415;28;20159;-74
2023/11/26 07:19:20;;;;;;;10.10;4.15;;;;;;;-1.70;100.00;100536.47;5045874;28;20047;-74
2023/11/26 07:21:45;;;;;;;6.30;3.30;;;;;;;-1.72;100.00;100520.00;5048043;28;20747;-74
2023/11/26 07:24:11;;;;;;;6.05;3.60;;;;;;;-1.80;100.00;100498.69;5040676;28;20036;-75
2023/11/26 07:26:36;;;;;;;;;;;;;;;-1.74;100.00;100513.19;5047307;28;20032;-74
2023/11/26 07:29:02;;;;;;;;;;;;;;;-1.72;100.00;100503.47;5046886;28;19913;-74
2023/11/26 07:31:28;;;;;;;;;;;;;;;-1.75;100.00;100509.72;5046826;28;20023;-74
2023/11/26 07:33:53;;;;;;;5.45;3.15;;;;;;;-1.72;100.00;100508.69;5046686;28;19992;-74
2023/11/26 07:36:23;;;;;;;13.13;3.97;;;;;;;-1.62;100.00;100519.47;4987065;28;23942;-74
2023/11/26 07:38:58;;;;;;;8.27;3.95;;;;;;;-1.60;100.00;100507.97;4970196;28;20030;-74
2023/11/26 07:41:25;;;;;;;8.95;3.80;;;;;;;-1.54;100.00;100519.88;4987458;28;20031;-74
2023/11/26 07:43:52;;;;;;;10.65;3.88;;;;;;;-1.59;100.00;100503.56;4986625;28;20022;-74
2023/11/26 07:46:18;;;;;;;9.82;3.80;;;;;;;-1.59;100.00;100498.34;4980852;28;20054;-74
2023/11/26 07:48:46;;;;;;;10.82;4.00;;;;;;;-1.59;100.00;100495.72;4980632;28;20023;-74
2023/11/26 07:51:11;;;;;;;9.02;5.07;;;;;;;-1.56;100.00;100506.03;4970972;28;20036;-74
2023/11/26 07:53:38;;;;;;;6.25;4.50;;;;;;;-1.49;100.00;100496.88;4986307;28;20101;-74
2023/11/26 07:56:07;;;;;;;6.18;3.33;;;;;;;-1.44;100.00;100494.81;4969657;28;20034;-74
2023/11/26 07:58:33;;;;;;;7.05;3.65;;;;;;;-1.47;100.00;100478.47;4978317;28;20074;-74
2023/11/26 08:00:59;;;;;;;9.90;4.20;;;;;;;-1.42;100.00;100479.88;4972170;28;20034;-75
2023/11/26 08:03:26;;;;;;;6.15;3.72;;;;;;;-1.28;100.00;100487.72;4963725;28;20390;-75
2023/11/26 08:05:53;;;;;;;7.30;3.70;;;;;;;-1.28;100.00;100482.50;4982660;28;20105;-74
2023/11/26 08:08:21;;;;;;;;;;;;;;;-0.56;100.00;100566.34;4957314;28;20117;-74
2023/11/26 08:10:48;;;;;;;5.38;3.30;;;;;;;0.25;100.00;100614.59;4976579;28;20472;-75
2023/11/26 08:13:14;;;;;;;3.80;2.60;;;;;;;1.18;100.00;100644.31;4975354;28;20031;-74
2023/11/26 08:15:39;;;;;;;;;;;;;;;2.24;100.00;100685.13;4982981;28;20067;-75
2023/11/26 08:18:06;;;;;;;7.60;4.57;;;;;;;2.89;100.00;100644.34;4967344;28;20055;-75
2023/11/26 08:20:32;;;;;;;4.47;2.88;;;;;;;3.69;100.00;100617.06;4961974;28;20066;-75
2023/11/26 08:23:01;;;;;;;9.35;3.30;;;;;;;4.27;100.00;100512.94;4953126;28;20239;-75
2023/11/26 08:25:29;;;;;;;5.03;3.08;;;;;;;4.55;100.00;100255.84;4984360;28;20164;-75
2023/11/26 08:27:55;;;;;;;4.95;2.70;;;;;;;4.63;100.00;99946.63;4990672;28;20026;-75
2023/11/26 08:30:36;;;;;;;2.97;2.00;;;;;;;5.75;100.00;99936.88;4991054;28;20044;-74
2023/11/26 08:33:05;;;;;;;5.13;2.45;;;;;;;5.86;100.00;99556.03;4960058;28;20109;-75
2023/11/26 08:35:32;;;;;;;6.85;3.00;;;;;;;5.86;100.00;99230.22;4971680;28;20148;-75
2023/11/26 08:38:00;;;;;;;4.30;2.55;;;;;;;6.49;100.00;99092.50;4962430;28;20710;-73
2023/11/26 08:40:25;;;;;;;5.80;2.75;;;;;;;6.91;100.00;98940.78;4997797;28;20030;-73
2023/11/26 08:42:54;;;;;;;5.53;2.55;;;;;;;7.44;100.00;98918.56;4971970;28;20570;-74
2023/11/26 08:45:20;;;;;;;4.45;2.92;;;;;;;8.05;100.00;98679.78;4990681;28;20026;-74
2023/11/26 08:47:47;;;;;;;4.45;2.63;;;;;;;8.41;100.00;98551.94;4997923;28;20037;-74
2023/11/26 08:50:13;;;;;;;5.30;2.17;;;;;;;8.64;100.00;98407.94;4973723;28;20041;-74
2023/11/26 08:52:39;;;;;;;5.35;2.50;;;;;;;9.17;100.00;98209.97;4994180;28;20393;-73
2023/11/26 08:55:05;;;;;;;3.05;2.05;;;;;;;8.53;100.00;97894.50;4996175;28;20042;-73
2023/11/26 08:57:31;;;;;;;4.00;1.83;;;;;;;8.98;95.98;97867.66;4970116;28;20081;-74
2023/11/26 08:59:57;;;;;;;3.28;1.98;;;;;;;8.77;92.83;97714.63;4986683;28;20038;-74
2023/11/26 09:02:23;;;;;;;2.97;1.90;;;;;;;8.76;91.12;97697.84;4966937;28;20049;-74
2023/11/26 09:04:49;;;;;;;4.78;1.50;;;;;;;8.41;88.96;97543.50;4973417;28;20320;-74
2023/11/26 09:07:15;;;;;;;3.70;2.00;;;;;;;8.39;87.49;97564.94;4979716;28;20057;-74
2023/11/26 09:09:42;;;;;;;3.22;1.55;;;;;;;8.36;85.78;97514.09;4991286;28;20928;-74
2023/11/26 09:12:07;;;;;;;;;;;;;;;8.18;84.28;97452.00;4965107;28;20033;-73
2023/11/26 09:14:32;;;;;;;4.28;1.55;;;;;;;8.00;83.09;97401.56;4974336;28;19918;-74
2023/11/26 09:16:58;;;;;;;2.70;1.20;;;;;;;6.90;81.66;97116.19;4973945;28;20449;-73
2023/11/26 09:19:23;;;;;;;1.70;1.00;;;;;;;7.14;82.72;97457.41;4983073;28;20034;-73
2023/11/26 09:21:50;;;;;;;6.13;1.93;;;;;;;6.08;82.35;97189.00;4967811;28;20049;-74
2023/11/26 09:24:16;;;;;;;4.70;1.48;;;;;;;5.08;83.04;97170.56;4985435;28;20034;-73
2023/11/26 09:26:43;;;;;;;3.80;1.77;;;;;;;5.31;85.01;97616.97;4965571;28;20077;-74
2023/11/26 09:29:08;;;;;;;3.88;1.83;;;;;;;6.49;85.51;98009.09;4957261;28;20109;-73
2023/11/26 09:31:34;;;;;;;4.40;1.52;;;;;;;7.54;84.16;98094.13;4988339;28;20120;-73
2023/11/26 09:34:00;;;;;;;2.40;1.40;;;;;;;5.89;81.45;97301.19;4995360;28;20030;-73
2023/11/26 09:36:26;;;;;;;5.18;1.23;;;;;;;4.41;82.86;97226.41;4985555;28;20104;-73
2023/11/26 09:38:52;;;;;;;2.78;0.80;;;;;;;4.24;85.31;97637.19;4971403;28;20110;-73
2023/11/26 09:41:20;;;;;;;4.10;1.40;;;;;;;3.96;87.27;97796.47;5001018;28;20033;-74
2023/11/26 09:43:46;;;;;;;3.30;0.93;;;;;;;5.32;90.14;98515.50;4976054;28;20030;-74
2023/11/26 09:46:14;;;;;;;2.40;1.17;;;;;;;5.97;86.01;98219.03;4992208;28;20127;-73
2023/11/26 09:48:40;;;;;;;2.28;0.90;;;;;;;6.34;83.79;98014.59;5001115;28;20105;-74
2023/11/26 09:51:08;;;;;;;4.40;1.90;;;;;;;5.55;83.67;97776.13;4973891;28;20359;-73
2023/11/26 09:53:34;;;;;;;3.75;1.27;;;;;;;4.57;84.22;97684.84;4983663;28;20065;-75
2023/11/26 09:56:00;;;;;;;2.38;1.17;;;;;;;4.35;85.74;97810.13;4966932;28;20097;-76
2023/11/26 09:58:25;;;;;;;3.67;1.27;;;;;;;3.95;86.78;97875.84;4991504;28;20862;-75
2023/11/26 10:00:50;;;;;;;3.63;1.27;;;;;;;3.93;88.10;98029.16;4985975;28;20034;-76
2023/11/26 10:03:16;;;;;;;1.70;1.20;;;;;;;3.98;87.83;98099.84;4979564;28;20288;-76
2023/11/26 10:05:41;;;;;;;3.67;1.30;;;;;;;3.83;88.45;98110.44;4984119;28;20042;-76
2023/11/26 10:08:25;;;;;;;1.88;1.23;;;;;;;3.76;89.19;98191.34;4996769;28;20153;-75
2023/11/26 10:10:51;;;;;;;3.22;1.40;;;;;;;3.75;90.74;98334.88;4962685;28;20050;-75
2023/11/26 10:13:16;;;;;;;2.57;1.50;;;;;;;3.62;90.96;98335.44;4991541;28;20038;-75
2023/11/26 10:15:42;;;;;;;2.63;1.23;;;;;;;3.68;92.45;98487.00;4991222;28;20296;-76
2023/11/26 10:18:09;;;;;;;5.80;1.40;;;;;;;3.45;93.11;98506.22;4989935;28;20034;-76
2023/11/26 10:20:36;;;;;;;3.22;1.40;;;;;;;3.27;91.63;98316.56;4955258;28;20041;-75
2023/11/26 10:23:02;;;;;;;2.17;1.40;;;;;;;3.33;94.35;98595.47;4990284;28;20077;-76
2023/11/26 10:25:28;;;;;;;3.20;1.23;;;;;;;3.59;93.83;98618.97;5000823;28;20030;-75
2023/11/26 10:28:02;;;;;;;4.53;1.90;;;;;;;3.94;94.15;98722.47;4999751;28;20052;-75
2023/11/26 10:30:32;;;;;;;2.80;1.50;;;;;;;4.17;91.46;98518.38;4979873;28;20037;-75
2023/11/26 10:33:05;;;;;;;3.20;1.88;;;;;;;4.20;90.58;98412.38;4976170;28;20045;-76
2023/11/26 10:35:51;;;;;;;3.13;1.73;;;;;;;3.94;89.57;98201.56;4986763;28;20618;-76
2023/11/26 10:38:18;;;;;;;3.25;1.65;;;;;;;4.08;90.41;98367.09;4963221;28;20082;-76
2023/11/26 10:40:46;;;;;;;2.70;1.83;;;;;;;3.81;91.84;98418.59;4992638;28;20018;-76
2023/11/26 10:43:12;;;;;;;4.72;2.10;;;;;;;3.59;93.79;98584.66;4988585;28;20045;-75
2023/11/26 10:45:38;;;;;;;;;;;;;;;3.54;94.51;98628.41;4981548;28;20027;-75
2023/11/26 10:48:10;;;;;;;6.45;2.05;;;;;;;3.61;94.42;98676.03;4989023;28;20364;-75
2023/11/26 10:50:44;;;;;;;4.15;2.13;;;;;;;3.88;94.89;98756.63;4970759;28;20085;-75
2023/11/26 10:53:19;;;;;;;5.80;2.22;;;;;;;3.91;94.27;98685.00;4986266;28;20089;-75
2023/11/26 10:55:49;;;;;;;3.42;2.15;;;;;;;4.12;93.70;98687.91;4971055;28;20031;-75
2023/11/26 10:58:19;;;;;;;3.17;1.80;;;;;;;4.13;92.32;98569.91;4996469;28;20478;-75
2023/11/26 11:00:57;;;;;;;3.92;1.38;;;;;;;4.12;92.13;98540.03;4995921;28;20042;-76
2023/11/26 11:03:23;;;;;;;5.95;1.90;;;;;;;4.12;92.99;98606.06;4985776;28;20040;-75
2023/11/26 11:05:50;;;;;;;4.28;1.95;;;;;;;4.16;93.62;98664.63;5000044;28;20421;-75
2023/11/26 11:08:16;;;;;;;3.97;1.83;;;;;;;4.00;92.64;98515.84;4999723;28;20034;-75
2023/11/26 11:10:47;;;;;;;;;;;;;;;4.06;93.40;98627.84;4969551;28;20122;-75
2023/11/26 11:13:16;;;;;;;4.05;1.45;;;;;;;3.99;94.60;98712.22;4986706;28;19949;-75
2023/11/26 11:15:43;;;;;;;2.55;1.75;;;;;;;3.69;95.71;98694.47;4988340;28;20761;-76
2023/11/26 11:18:26;;;;;;;3.50;1.67;;;;;;;3.79;97.21;98875.44;4996109;28;20104;-75
2023/11/26 11:21:09;;;;;;;3.90;2.17;;;;;;;3.45;97.83;98811.44;4969362;28;20061;-75
2023/11/26 11:23:56;;;;;;;3.60;1.90;;;;;;;3.65;98.77;98954.44;4965403;28;20121;-76
2023/11/26 11:26:23;;;;;;;1.67;1.35;;;;;;;3.45;97.07;98742.84;4985715;28;20050;-75
2023/11/26 11:28:53;;;;;;;2.95;2.00;;;;;;;3.39;99.22;98889.41;4981193;28;20033;-75
2023/11/26 11:31:42;;;;;;;3.83;1.90;;;;;;;3.33;98.85;98856.59;4970566;28;20736;-75
2023/11/26 11:34:07;;;;;;;3.17;1.77;;;;;;;3.28;97.95;98765.75;4976830;28;20043;-76